createdAt,value
2023-04-15T00:01:54.951Z,101147.09
2023-04-15T00:04:22.942Z,101131.19
2023-04-15T00:06:54.694Z,101109.94
2023-04-15T00:09:24.052Z,101111.72
2023-04-15T00:11:52.588Z,101110.78
2023-04-15T00:14:20.364Z,101092.28
2023-04-15T00:16:50.074Z,101078.97
2023-04-15T00:19:17.913Z,101077.19
2023-04-15T00:21:45.854Z,101066.56
2023-04-15T00:24:13.759Z,101070.03
2023-04-15T00:26:42.986Z,101059.41
2023-04-15T00:29:10.702Z,101046.94
2023-04-15T00:31:38.480Z,101042.47
2023-04-15T00:34:06.340Z,101024.88
2023-04-15T00:36:35.121Z,101009.91
2023-04-15T00:39:03.272Z,101030.09
2023-04-15T00:41:31.734Z,101009.03
2023-04-15T00:44:02.310Z,101018.81
2023-04-15T00:46:32.112Z,101015.22
2023-04-15T00:49:00.005Z,101017.94
2023-04-15T00:51:28.074Z,101017.88
2023-04-15T00:53:55.974Z,101018.81
2023-04-15T00:56:25.411Z,101018.81
2023-04-15T00:58:53.356Z,101011.69
2023-04-15T01:01:23.425Z,101008.19
2023-04-15T01:03:51.924Z,101010.84
2023-04-15T01:06:19.917Z,100996.72
2023-04-15T01:08:47.626Z,101010.00
2023-04-15T01:11:16.759Z,101012.66
2023-04-15T01:13:44.715Z,100989.81
2023-04-15T01:16:13.299Z,100998.59
2023-04-15T01:18:42.876Z,101000.28
2023-04-15T01:21:10.964Z,100989.72
2023-04-15T01:23:39.602Z,100993.28
2023-04-15T01:26:09.402Z,100987.09
2023-04-15T01:28:38.447Z,100996.88
2023-04-15T01:31:08.528Z,100987.09
2023-04-15T01:33:36.651Z,100995.03
2023-04-15T01:36:05.154Z,100992.38
2023-04-15T01:38:33.621Z,100990.59
2023-04-15T01:41:01.456Z,100980.84
2023-04-15T01:43:30.580Z,100980.84
2023-04-15T01:45:58.429Z,100982.66
2023-04-15T01:48:27.371Z,100975.53
2023-04-15T01:50:57.544Z,100972.88
2023-04-15T01:53:25.948Z,100987.00
2023-04-15T01:55:54.198Z,100979.00
2023-04-15T01:58:22.601Z,100978.19
2023-04-15T02:00:51.807Z,100984.28
2023-04-15T02:03:20.096Z,100971.94
2023-04-15T02:05:47.873Z,100977.25
2023-04-15T02:08:15.634Z,100984.19
2023-04-15T02:10:43.522Z,100977.13
2023-04-15T02:13:11.718Z,100970.88
2023-04-15T02:15:39.623Z,100970.03
2023-04-15T02:18:08.659Z,100951.41
2023-04-15T02:20:37.967Z,100939.06
2023-04-15T02:23:07.406Z,100939.09
2023-04-15T02:25:35.130Z,100945.22
2023-04-15T02:28:02.947Z,100947.03
2023-04-15T02:30:30.826Z,100950.59
2023-04-15T02:32:58.651Z,100947.03
2023-04-15T02:35:28.270Z,100951.41
2023-04-15T02:37:56.187Z,100953.25
2023-04-15T02:40:24.051Z,100960.31
2023-04-15T02:42:51.944Z,100972.59
2023-04-15T02:45:23.656Z,100971.78
2023-04-15T02:47:51.547Z,100978.81
2023-04-15T02:50:19.416Z,100992.81
2023-04-15T02:52:48.527Z,100987.50
2023-04-15T02:55:18.041Z,100991.06
2023-04-15T02:57:45.916Z,100970.63
2023-04-15T03:00:15.023Z,100963.66
2023-04-15T03:02:43.232Z,100968.03
2023-04-15T03:05:13.966Z,100977.81
2023-04-15T03:07:41.753Z,100981.28
2023-04-15T03:10:12.067Z,100960.06
2023-04-15T03:12:40.688Z,100961.97
2023-04-15T03:15:10.032Z,100977.81
2023-04-15T03:17:37.740Z,100966.47
2023-04-15T03:20:07.163Z,100980.50
2023-04-15T03:22:35.197Z,100997.31
2023-04-15T03:25:03.274Z,100995.59
2023-04-15T03:27:32.461Z,101002.63
2023-04-15T03:30:00.452Z,101012.38
2023-04-15T03:32:28.308Z,101020.34
2023-04-15T03:34:56.155Z,101039.78
2023-04-15T03:37:23.900Z,101045.06
2023-04-15T03:39:51.695Z,101047.63
2023-04-15T03:42:19.447Z,101037.94
2023-04-15T03:44:48.647Z,101051.13
2023-04-15T03:47:16.399Z,101052.91
2023-04-15T03:49:44.210Z,101046.72
2023-04-15T03:52:12.020Z,101050.25
2023-04-15T03:54:39.780Z,101060.09
2023-04-15T03:57:07.701Z,101076.81
2023-04-15T03:59:35.561Z,101082.06
2023-04-15T04:02:04.830Z,101073.22
2023-04-15T04:04:32.816Z,101080.25
2023-04-15T04:07:00.730Z,101067.84
2023-04-15T04:09:28.826Z,101072.22
2023-04-15T04:11:56.929Z,101064.25
2023-04-15T04:14:29.656Z,101060.75
2023-04-15T04:16:57.820Z,101066.06
2023-04-15T04:19:27.062Z,101068.69
2023-04-15T04:21:54.973Z,101059.75
2023-04-15T04:24:22.772Z,101057.09
2023-04-15T04:26:50.521Z,101053.53
2023-04-15T04:29:18.372Z,101060.59
2023-04-15T04:31:46.916Z,101053.47
2023-04-15T04:34:14.758Z,101057.88
2023-04-15T04:36:44.397Z,101065.59
2023-04-15T04:39:12.184Z,101039.97
2023-04-15T04:41:39.950Z,101047.53
2023-04-15T04:44:07.952Z,101009.50
2023-04-15T04:46:35.832Z,100989.06
2023-04-15T04:49:03.921Z,100978.31
2023-04-15T04:51:32.574Z,100971.09
2023-04-15T04:54:03.541Z,100937.53
2023-04-15T04:56:31.560Z,100917.16
2023-04-15T04:58:59.560Z,100911.75
2023-04-15T05:01:27.813Z,100899.38
2023-04-15T05:03:56.081Z,100896.69
2023-04-15T05:06:24.036Z,100899.19
2023-04-15T05:08:52.087Z,100897.31
2023-04-15T05:11:21.384Z,100876.06
2023-04-15T05:13:49.293Z,100858.34
2023-04-15T05:16:17.358Z,100851.22
2023-04-15T05:18:45.501Z,100845.78
2023-04-15T05:21:14.421Z,100841.25
2023-04-15T05:23:42.417Z,100825.38
2023-04-15T05:26:10.430Z,100823.53
2023-04-15T05:28:39.501Z,100827.69
2023-04-15T05:31:07.587Z,100802.00
2023-04-15T05:33:35.705Z,100810.56
2023-04-15T05:36:03.614Z,100782.09
2023-04-15T05:38:31.440Z,100774.03
2023-04-15T05:40:59.209Z,100774.41
2023-04-15T05:43:26.968Z,100764.34
2023-04-15T05:45:56.559Z,100772.34
2023-04-15T05:48:24.508Z,100746.94
2023-04-15T05:50:52.454Z,100719.84
2023-04-15T05:53:20.685Z,100677.50
2023-04-15T05:55:48.417Z,100604.28
2023-04-15T05:58:16.172Z,100610.69
2023-04-15T06:00:44.705Z,100582.63
2023-04-15T06:03:13.988Z,100519.06
2023-04-15T06:05:41.816Z,100482.56
2023-04-15T06:08:09.712Z,100481.56
2023-04-15T06:10:37.786Z,100496.19
2023-04-15T06:13:05.764Z,100504.66
2023-04-15T06:15:33.857Z,100448.00
2023-04-15T06:18:01.651Z,100443.59
2023-04-15T06:20:30.866Z,100458.25
2023-04-15T06:22:58.697Z,100433.91
2023-04-15T06:25:26.673Z,100457.81
2023-04-15T06:27:54.598Z,100451.94
2023-04-15T06:30:24.330Z,100475.50
2023-04-15T06:32:52.839Z,100434.78
2023-04-15T06:35:20.951Z,100442.78
2023-04-15T06:37:50.034Z,100394.94
2023-04-15T06:40:17.879Z,100401.34
2023-04-15T06:42:45.645Z,100401.63
2023-04-15T06:45:13.351Z,100407.88
2023-04-15T06:47:41.914Z,100452.50
2023-04-15T06:50:11.527Z,100366.34
2023-04-15T06:52:39.502Z,100414.47
2023-04-15T06:55:10.032Z,100444.16
2023-04-15T06:57:37.842Z,100467.00
2023-04-15T07:00:07.389Z,100383.94
2023-04-15T07:02:35.566Z,100413.28
2023-04-15T07:05:03.486Z,100217.38
2023-04-15T07:07:31.717Z,100262.25
2023-04-15T07:09:59.884Z,100476.06
2023-04-15T07:12:29.137Z,100172.06
2023-04-15T07:14:56.911Z,100183.22
2023-04-15T07:17:24.937Z,100068.00
2023-04-15T07:19:52.752Z,100081.63
2023-04-15T07:22:20.524Z,100104.78
2023-04-15T07:24:48.283Z,100193.94
2023-04-15T07:27:16.386Z,100173.88
2023-04-15T07:29:45.668Z,99941.03
2023-04-15T07:32:13.329Z,99759.19
2023-04-15T07:34:41.563Z,99763.28
2023-04-15T07:37:09.368Z,99911.25
2023-04-15T07:39:37.252Z,99909.81
2023-04-15T07:42:05.352Z,100013.50
2023-04-15T07:44:33.328Z,100037.09
2023-04-15T07:47:03.940Z,100080.44
2023-04-15T07:52:00.267Z,100070.06
2023-04-15T07:54:28.559Z,100163.34
2023-04-15T07:56:57.283Z,100155.31
2023-04-15T07:59:25.221Z,100162.47
2023-04-15T08:01:53.193Z,100100.22
2023-04-15T08:04:22.792Z,100109.09
2023-04-15T08:06:50.675Z,100083.13
2023-04-15T08:09:18.482Z,100101.94
2023-04-15T08:11:46.562Z,100036.56
2023-04-15T08:14:14.417Z,100090.38
2023-04-15T08:16:42.482Z,100129.91
2023-04-15T08:19:10.430Z,100182.88
2023-04-15T08:21:40.632Z,100238.84
2023-04-15T08:24:08.388Z,100234.03
2023-04-15T08:26:36.345Z,100188.72
2023-04-15T08:29:04.364Z,100139.81
2023-04-15T08:31:32.334Z,100200.53
2023-04-15T08:34:00.305Z,100145.97
2023-04-15T08:36:28.464Z,100092.81
2023-04-15T08:38:57.627Z,100039.72
2023-04-15T08:41:27.227Z,100027.84
2023-04-15T08:43:58.316Z,100039.78
2023-04-15T08:46:26.687Z,100049.94
2023-04-15T08:48:58.602Z,100084.25
2023-04-15T08:51:27.220Z,100091.63
2023-04-15T08:53:55.534Z,100077.41
2023-04-15T08:56:27.171Z,100133.06
2023-04-15T08:58:56.052Z,100141.56
2023-04-15T09:01:24.293Z,100142.88
2023-04-15T09:03:52.838Z,100162.38
2023-04-15T09:06:21.610Z,100091.31
2023-04-15T09:08:49.425Z,100097.25
2023-04-15T09:11:20.006Z,100073.47
2023-04-15T09:13:50.282Z,100102.44
2023-04-15T09:16:18.844Z,100112.06
2023-04-15T09:18:46.953Z,100134.22
2023-04-15T09:21:16.093Z,100133.53
2023-04-15T09:23:58.628Z,100122.75
2023-04-15T09:26:34.524Z,100064.59
2023-04-15T09:29:10.265Z,100117.31
2023-04-15T09:31:38.624Z,100053.59
2023-04-15T09:34:06.935Z,100039.28
2023-04-15T09:36:53.409Z,100070.41
2023-04-15T09:39:21.446Z,100129.03
2023-04-15T09:42:04.879Z,100087.28
2023-04-15T09:44:34.296Z,100065.81
2023-04-15T09:47:02.350Z,100094.56
2023-04-15T09:49:30.391Z,100013.34
2023-04-15T09:52:05.762Z,100012.31
2023-04-15T09:54:36.324Z,100073.16
2023-04-15T09:57:08.370Z,100020.81
2023-04-15T09:59:37.578Z,100049.06
2023-04-15T10:02:07.646Z,99979.34
2023-04-15T10:04:40.842Z,100035.25
2023-04-15T10:07:10.574Z,100043.34
2023-04-15T10:09:40.151Z,100055.97
2023-04-15T10:12:08.006Z,100112.34
2023-04-15T10:14:39.072Z,100030.16
2023-04-15T10:17:08.961Z,100035.63
2023-04-15T10:19:38.560Z,100032.44
2023-04-15T10:22:07.547Z,99967.72
2023-04-15T10:24:35.500Z,100016.31
2023-04-15T10:27:05.363Z,100004.63
2023-04-15T10:29:33.250Z,100033.97
2023-04-15T10:32:03.304Z,99969.97
2023-04-15T10:34:31.886Z,100045.16
2023-04-15T10:37:03.852Z,99942.53
2023-04-15T10:39:42.857Z,99940.59
2023-04-15T10:42:12.637Z,99956.88
2023-04-15T10:44:40.931Z,99975.06
2023-04-15T10:47:13.694Z,99987.59
2023-04-15T10:49:46.440Z,99965.94
2023-04-15T10:52:15.949Z,100001.03
2023-04-15T10:54:43.797Z,99970.72
2023-04-15T10:57:17.073Z,99987.94
2023-04-15T11:00:13.557Z,99977.34
2023-04-15T11:02:48.241Z,100019.72
2023-04-15T11:05:17.251Z,100031.91
2023-04-15T11:07:56.140Z,100023.72
2023-04-15T11:10:56.583Z,100064.63
2023-04-15T11:13:31.806Z,100024.16
2023-04-15T11:16:01.823Z,100011.66
2023-04-15T11:18:33.092Z,100045.91
2023-04-15T11:21:03.447Z,100075.75
2023-04-15T11:23:34.149Z,100042.97
2023-04-15T11:26:03.356Z,100034.94
2023-04-15T11:28:32.628Z,99970.88
2023-04-15T11:31:08.480Z,99951.81
2023-04-15T11:33:38.016Z,99952.72
2023-04-15T11:36:06.101Z,99999.56
2023-04-15T11:38:35.748Z,99988.97
2023-04-15T11:41:03.530Z,100001.03
2023-04-15T11:43:35.361Z,100064.50
2023-04-15T11:46:04.890Z,100058.31
2023-04-15T11:48:34.699Z,100084.91
2023-04-15T11:51:05.914Z,100103.16
2023-04-15T11:53:41.502Z,100099.94
2023-04-15T11:56:11.046Z,100110.22
2023-04-15T11:58:39.884Z,100094.28
2023-04-15T12:01:08.406Z,100060.84
2023-04-15T12:03:42.374Z,100098.59
2023-04-15T12:06:19.125Z,100110.03
2023-04-15T12:08:52.686Z,100112.13
2023-04-15T12:11:21.037Z,100114.41
2023-04-15T12:13:50.110Z,100137.13
2023-04-15T12:16:19.400Z,100134.75
2023-04-15T12:18:48.376Z,100085.78
2023-04-15T12:21:20.688Z,100118.06
2023-04-15T12:23:52.373Z,100156.28
2023-04-15T12:26:28.246Z,100143.84
2023-04-15T12:28:57.055Z,100180.31
2023-04-15T12:31:25.497Z,100185.00
2023-04-15T12:33:55.895Z,100197.13
2023-04-15T12:36:25.396Z,100226.25
2023-04-15T12:38:53.392Z,100230.53
2023-04-15T12:41:21.814Z,100232.44
2023-04-15T12:43:49.656Z,100234.72
2023-04-15T12:46:17.535Z,100278.09
2023-04-15T12:48:45.751Z,100286.28
2023-04-15T12:51:13.550Z,100302.16
2023-04-15T12:53:42.717Z,100302.50
2023-04-15T12:56:10.649Z,100288.91
2023-04-15T12:58:38.378Z,100308.41
2023-04-15T13:01:06.694Z,100321.00
2023-04-15T13:03:34.647Z,100346.31
2023-04-15T13:06:04.670Z,100350.69
2023-04-15T13:08:32.583Z,100364.75
2023-04-15T13:11:01.825Z,100363.03
2023-04-15T13:13:31.875Z,100377.16
2023-04-15T13:15:59.696Z,100377.16
2023-04-15T13:18:27.529Z,100389.25
2023-04-15T13:20:56.663Z,100433.63
2023-04-15T13:23:24.516Z,100387.16
2023-04-15T13:25:52.274Z,100403.00
2023-04-15T13:28:21.724Z,100398.53
2023-04-15T13:30:49.540Z,100408.94
2023-04-15T13:33:18.320Z,100431.63
2023-04-15T13:35:46.374Z,100424.84
2023-04-15T13:38:14.205Z,100416.13
2023-04-15T13:40:41.914Z,100421.94
2023-04-15T13:43:09.709Z,100423.22
2023-04-15T13:45:39.176Z,100417.19
2023-04-15T13:48:07.495Z,100461.84
2023-04-15T13:50:35.263Z,100427.19
2023-04-15T13:53:03.035Z,100446.59
2023-04-15T13:55:31.007Z,100447.97
2023-04-15T13:57:58.784Z,100463.94
2023-04-15T14:00:26.539Z,100457.22
2023-04-15T14:02:55.812Z,100422.38
2023-04-15T14:05:23.705Z,100463.59
2023-04-15T14:07:51.424Z,100457.56
2023-04-15T14:10:19.253Z,100454.63
2023-04-15T14:12:47.002Z,100465.50
2023-04-15T14:15:15.029Z,100490.28
2023-04-15T14:17:43.407Z,100465.22
2023-04-15T14:20:15.012Z,100494.63
2023-04-15T14:22:44.199Z,100509.69
2023-04-15T14:25:20.065Z,100515.03
2023-04-15T14:27:55.052Z,100537.88
2023-04-15T14:30:22.960Z,100528.41
2023-04-15T14:32:50.809Z,100557.28
2023-04-15T14:35:20.093Z,100576.06
2023-04-15T14:37:47.826Z,100562.81
2023-04-15T14:40:15.673Z,100602.41
2023-04-15T14:42:43.440Z,100553.84
2023-04-15T14:45:11.971Z,100576.84
2023-04-15T14:47:39.719Z,100611.03
2023-04-15T14:50:08.489Z,100602.22
2023-04-15T14:52:39.644Z,100616.56
2023-04-15T14:55:08.794Z,100594.72
2023-04-15T14:57:37.134Z,100598.22
2023-04-15T15:00:06.950Z,100616.09
2023-04-15T15:02:39.816Z,100616.34
2023-04-15T15:05:09.134Z,100631.66
2023-04-15T15:07:40.722Z,100638.03
2023-04-15T15:10:09.496Z,100649.81
2023-04-15T15:12:37.356Z,100648.03
2023-04-15T15:15:15.734Z,100647.56
2023-04-15T15:17:53.216Z,100640.19
2023-04-15T15:20:21.051Z,100674.59
2023-04-15T15:22:50.284Z,100701.16
2023-04-15T15:25:18.471Z,100661.88
2023-04-15T15:27:46.434Z,100664.84
2023-04-15T15:30:14.315Z,100673.88
2023-04-15T15:32:43.075Z,100699.72
2023-04-15T15:35:11.542Z,100714.56
2023-04-15T15:37:41.851Z,100724.09
2023-04-15T15:40:12.688Z,100726.66
2023-04-15T15:42:41.947Z,100712.69
2023-04-15T15:45:10.487Z,100750.47
2023-04-15T15:47:38.825Z,100747.03
2023-04-15T15:50:07.782Z,100767.94
2023-04-15T15:52:40.276Z,100777.00
2023-04-15T15:55:09.103Z,100757.63
2023-04-15T15:57:38.441Z,100733.66
2023-04-15T16:00:17.829Z,100750.69
2023-04-15T16:03:38.018Z,100756.25
2023-04-15T16:06:07.504Z,100811.09
2023-04-15T16:08:40.626Z,100802.34
2023-04-15T16:11:22.612Z,100814.34
2023-04-15T16:14:24.991Z,100779.06
2023-04-15T16:19:55.540Z,100801.63
2023-04-15T16:22:54.585Z,100778.81
2023-04-15T16:25:22.460Z,100769.94
2023-04-15T16:28:05.906Z,100773.53
2023-04-15T16:30:49.568Z,100765.81
2023-04-15T16:33:27.008Z,100777.47
2023-04-15T16:36:10.068Z,100773.19
2023-04-15T16:38:48.288Z,100786.41
2023-04-15T16:41:16.712Z,100790.03
2023-04-15T16:43:45.914Z,100778.78
2023-04-15T16:46:15.555Z,100773.59
2023-04-15T16:48:43.450Z,100790.47
2023-04-15T16:51:11.433Z,100813.84
2023-04-15T16:53:42.936Z,100836.94
2023-04-15T16:56:10.834Z,100858.13
2023-04-15T16:58:38.780Z,100848.63
2023-04-15T17:01:06.698Z,100839.06
2023-04-15T17:03:37.026Z,100862.19
2023-04-15T17:06:05.130Z,100864.19
2023-04-15T17:08:32.973Z,100891.69
2023-04-15T17:11:01.056Z,100906.81
2023-04-15T17:13:28.951Z,100906.13
2023-04-15T17:15:56.736Z,100909.84
2023-04-15T17:18:24.546Z,100903.84
2023-04-15T17:20:53.875Z,100925.00
2023-04-15T17:23:21.782Z,100936.69
2023-04-15T17:25:51.382Z,100940.34
2023-04-15T17:28:19.144Z,100951.00
2023-04-15T17:30:46.999Z,100966.19
2023-04-15T17:34:02.959Z,100976.09
2023-04-15T17:36:04.677Z,100988.53
2023-04-15T17:38:32.650Z,101000.97
2023-04-15T17:41:00.888Z,100999.34
2023-04-15T17:43:29.220Z,101019.84
2023-04-15T17:45:58.547Z,101042.97
2023-04-15T17:48:27.044Z,101050.19
2023-04-15T17:50:55.092Z,101062.84
2023-04-15T17:53:24.420Z,101071.66
2023-04-15T17:55:53.806Z,101086.84
2023-04-15T17:58:21.628Z,101101.19
2023-04-15T18:00:49.816Z,101112.84
2023-04-15T18:03:17.819Z,101135.00
2023-04-15T18:05:45.821Z,101159.84
2023-04-15T18:08:13.589Z,101180.38
2023-04-15T18:10:43.660Z,101179.69
2023-04-15T18:13:11.599Z,101203.75
2023-04-15T18:15:39.586Z,101222.47
2023-04-15T18:18:07.349Z,101239.47
2023-04-15T18:20:35.548Z,101255.47
2023-04-15T18:23:03.718Z,101263.53
2023-04-15T18:25:33.889Z,101285.69
2023-04-15T18:28:03.777Z,101300.81
2023-04-15T18:30:31.509Z,101311.53
2023-04-15T18:32:59.321Z,101335.50
2023-04-15T18:35:29.818Z,101347.03
2023-04-15T18:37:57.838Z,101355.16
2023-04-15T18:40:25.789Z,101364.09
2023-04-15T18:42:53.811Z,101381.84
2023-04-15T18:45:23.099Z,101388.97
2023-04-15T18:47:52.256Z,101411.22
2023-04-15T18:50:20.438Z,101413.06
2023-04-15T18:52:48.191Z,101431.72
2023-04-15T18:55:18.510Z,101448.56
2023-04-15T18:57:47.376Z,101461.91
2023-04-15T19:00:17.147Z,101460.22
2023-04-15T19:02:46.621Z,101470.91
2023-04-15T19:05:14.611Z,101470.00
2023-04-15T19:07:42.477Z,101473.56
2023-04-15T19:10:10.841Z,101485.00
2023-04-15T19:12:39.971Z,101480.53
2023-04-15T19:15:09.021Z,101468.19
2023-04-15T19:17:36.928Z,101468.16
2023-04-15T19:20:07.356Z,101477.88
2023-04-15T19:22:35.267Z,101486.81
2023-04-15T19:25:03.492Z,101484.94
2023-04-15T19:27:31.340Z,101492.16
2023-04-15T19:29:59.528Z,101487.75
2023-04-15T19:32:27.355Z,101506.44
2023-04-15T19:34:55.168Z,101520.59
2023-04-15T19:37:24.565Z,101519.75
2023-04-15T19:39:52.557Z,101522.41
2023-04-15T19:42:20.463Z,101530.53
2023-04-15T19:44:48.330Z,101540.38
2023-04-15T19:47:16.413Z,101550.09
2023-04-15T19:49:44.511Z,101570.53
2023-04-15T19:52:12.306Z,101580.22
2023-04-15T19:54:41.643Z,101593.53
2023-04-15T19:57:09.508Z,101591.63
2023-04-15T19:59:37.737Z,101590.63
2023-04-15T20:02:05.621Z,101554.31
2023-04-15T20:04:33.919Z,101548.06
2023-04-15T20:07:01.899Z,101511.72
2023-04-15T20:09:29.733Z,101506.41
2023-04-15T20:12:46.793Z,101474.53
2023-04-15T20:14:46.562Z,101466.53
2023-04-15T20:17:16.021Z,101448.91
2023-04-15T20:19:43.853Z,101437.47
2023-04-15T20:22:11.847Z,101425.09
2023-04-15T20:24:39.524Z,101435.75
2023-04-15T20:27:08.959Z,101425.16
2023-04-15T20:29:37.709Z,101417.25
2023-04-15T20:32:06.730Z,101420.00
2023-04-15T20:34:35.084Z,101421.75
2023-04-15T20:37:02.869Z,101426.31
2023-04-15T20:39:30.818Z,101432.53
2023-04-15T20:41:58.563Z,101430.88
2023-04-15T20:44:27.598Z,101443.25
2023-04-15T20:46:55.519Z,101439.75
2023-04-15T20:49:23.392Z,101450.50
2023-04-15T20:51:51.425Z,101462.06
2023-04-15T20:54:19.532Z,101457.72
2023-04-15T20:56:47.291Z,101460.50
2023-04-15T20:59:15.245Z,101459.69
2023-04-15T21:01:45.736Z,101469.47
2023-04-15T21:04:13.636Z,101474.03
2023-04-15T21:06:41.479Z,101477.66
2023-04-15T21:09:09.292Z,101489.22
2023-04-15T21:14:09.168Z,101517.66
2023-04-15T21:16:36.959Z,101528.31
2023-04-15T21:19:06.405Z,101537.22
2023-04-15T21:21:34.568Z,101550.50
2023-04-15T21:24:02.473Z,101553.19
2023-04-15T21:26:30.332Z,101547.13
2023-04-15T21:28:58.045Z,101539.13
2023-04-15T21:31:26.120Z,101545.28
2023-04-15T21:33:54.066Z,101555.94
2023-04-15T21:36:23.250Z,101553.31
2023-04-15T21:38:51.245Z,101556.91
2023-04-15T21:41:19.049Z,101548.94
2023-04-15T21:43:46.808Z,101548.09
2023-04-15T21:46:23.943Z,101541.81
2023-04-15T21:48:54.125Z,101537.41
2023-04-15T21:51:23.382Z,101542.69
2023-04-15T21:53:52.506Z,101522.34
2023-04-15T21:56:21.592Z,101517.00
2023-04-15T21:58:49.327Z,101516.09
2023-04-15T22:01:17.166Z,101511.63
2023-04-15T22:03:45.293Z,101497.47
2023-04-15T22:06:13.805Z,101488.63
2023-04-15T22:08:54.913Z,101485.94
2023-04-15T22:11:27.179Z,101477.97
2023-04-15T22:13:55.738Z,101474.50
2023-04-15T22:16:23.565Z,101468.31
2023-04-15T22:18:51.365Z,101468.31
2023-04-15T22:21:19.126Z,101473.63
2023-04-15T22:23:48.753Z,101464.81
2023-04-15T22:26:16.705Z,101460.47
2023-04-15T22:28:44.512Z,101476.44
2023-04-15T22:31:13.669Z,101473.81
2023-04-15T22:33:41.459Z,101492.47
2023-04-15T22:36:09.274Z,101486.31
2023-04-15T22:38:37.102Z,101489.06
2023-04-15T22:41:09.276Z,101496.22
2023-04-15T22:43:37.068Z,101505.91
2023-04-15T22:46:04.811Z,101498.06
2023-04-15T22:48:32.666Z,101491.88
2023-04-15T22:51:00.529Z,101487.53
2023-04-15T22:53:28.412Z,101490.22
2023-04-15T22:55:56.349Z,101498.28
2023-04-15T22:58:25.643Z,101506.25
2023-04-15T23:00:53.549Z,101512.53
2023-04-15T23:03:21.598Z,101525.03
2023-04-15T23:05:49.505Z,101533.88
2023-04-15T23:08:17.411Z,101530.38
2023-04-15T23:10:45.360Z,101541.94
2023-04-15T23:13:13.352Z,101559.66
2023-04-15T23:15:42.793Z,101563.31
2023-04-15T23:18:10.733Z,101573.97
2023-04-15T23:20:38.737Z,101591.66
2023-04-15T23:23:06.911Z,101597.88
2023-04-15T23:25:34.686Z,101609.41
2023-04-15T23:28:02.521Z,101604.94
2023-04-15T23:30:30.804Z,101596.03
2023-04-15T23:33:00.182Z,101588.97
2023-04-15T23:35:28.251Z,101588.97
2023-04-15T23:37:55.989Z,101574.81
2023-04-15T23:40:23.812Z,101558.06
2023-04-15T23:42:51.767Z,101570.41
2023-04-15T23:45:19.661Z,101565.13
2023-04-15T23:47:47.497Z,101568.66
2023-04-15T23:50:16.676Z,101553.63
2023-04-15T23:52:44.406Z,101538.66
2023-04-15T23:55:12.228Z,101543.97
2023-04-15T23:57:40.422Z,101541.38
